Airport View

Enter AWOS ICAO identifier for current METAR.

ex. KFNL

KFLP 100156Z AUTO 00000KT 10SM CLR 24/22 A2990 RMK AO2 SLP116 T02390217

10 Jul 2020 02:26

Frequency: 132.075

Phone: 870-453-2380

Other Area AWOS: KBPK - KHRO - KBBG - KCCA

TAF KBPK 092320Z 1000/1024 17004KT P6SM BKN250 FM100900 VRB04KT 5SM BR SCT250 FM101400 VRB03KT P6SM BKN250 FM101800 VRB04KT P6SM SCT050 BKN250